Time;durP1;ratioP1;P1;durP2;ratioP2;P2;SDS_P1;SDS_P2;PMS_P1;PMS_P2;Temp;Humidity;BMP_temperature;BMP_pressure;BME280_temperature;BME280_humidity;BME280_pressure;Samples;Min_cycle;Max_cycle;Signal;HPM_P1;HPM_P2
2021/07/26 00:00:38;;;;;;;;;9.50;9.25;;;;;19.62;68.97;100210.00;5076449;27;62803;-61
2021/07/26 00:03:03;;;;;;;;;9.75;9.75;;;;;19.65;69.08;100212.25;5076965;27;46367;-61
2021/07/26 00:05:28;;;;;;;;;8.00;8.00;;;;;19.66;69.28;100208.56;5076067;28;73127;-61
2021/07/26 00:07:55;;;;;;;;;12.00;10.00;;;;;19.68;69.45;100211.84;5075429;27;69766;-60
2021/07/26 00:10:20;;;;;;;;;9.75;9.00;;;;;19.68;69.45;100207.31;5077034;27;45204;-61
2021/07/26 00:12:45;;;;;;;;;9.00;9.00;;;;;19.69;69.38;100208.16;5076519;27;53351;-61
2021/07/26 00:15:11;;;;;;;;;8.50;8.50;;;;;19.69;69.84;100200.97;5076985;27;45236;-61
2021/07/26 00:17:36;;;;;;;;;10.25;8.50;;;;;19.71;70.04;100198.13;5077032;27;45252;-61
2021/07/26 00:20:02;;;;;;;;;9.00;7.75;;;;;19.70;70.09;100202.59;5076381;27;48546;-60
2021/07/26 00:22:27;;;;;;;;;10.00;9.00;;;;;19.71;70.27;100206.09;5076607;27;47175;-61
2021/07/26 00:24:53;;;;;;;;;9.75;9.00;;;;;19.71;70.01;100208.78;5075840;27;68699;-60
2021/07/26 00:27:18;;;;;;;;;8.00;7.50;;;;;19.71;70.41;100214.91;5076305;27;59368;-61
2021/07/26 00:29:43;;;;;;;;;9.25;8.75;;;;;19.71;69.99;100219.44;5075963;27;69321;-60
2021/07/26 00:32:09;;;;;;;;;12.50;8.50;;;;;19.71;70.03;100217.56;5075564;27;75560;-61
2021/07/26 00:34:34;;;;;;;;;8.75;8.25;;;;;19.69;70.08;100211.63;5076720;27;45517;-61
2021/07/26 00:37:02;;;;;;;;;9.00;9.00;;;;;19.68;69.90;100211.84;5075721;27;67485;-61
2021/07/26 00:39:32;;;;;;;;;10.25;9.00;;;;;19.67;70.09;100203.00;5075429;28;45413;-60
2021/07/26 00:41:57;;;;;;;;;8.00;8.00;;;;;19.69;70.03;100210.81;5076403;27;46072;-60
2021/07/26 00:44:23;;;;;;;;;10.25;9.00;;;;;19.69;70.18;100216.97;5076540;28;45404;-60
2021/07/26 00:46:49;;;;;;;;;9.75;9.50;;;;;19.70;69.82;100215.13;5076762;28;45303;-60
2021/07/26 00:49:15;;;;;;;;;10.75;9.00;;;;;19.68;69.89;100214.50;5076618;27;45554;-60
2021/07/26 00:51:45;;;;;;;;;11.00;8.75;;;;;19.66;69.98;100212.03;5076329;27;45294;-61
2021/07/26 00:54:11;;;;;;;;;9.00;8.25;;;;;19.66;69.78;100212.03;5074346;28;45752;-60
2021/07/26 00:56:36;;;;;;;;;13.50;9.00;;;;;19.65;69.87;100199.72;5074938;28;51053;-60
2021/07/26 00:59:02;;;;;;;;;8.00;7.75;;;;;19.65;69.77;100204.25;5075634;27;64289;-60
2021/07/26 01:01:27;;;;;;;;;10.00;10.00;;;;;19.63;69.88;100207.13;5074086;28;70256;-60
2021/07/26 01:03:52;;;;;;;;;10.25;8.00;;;;;19.62;70.12;100207.31;5076412;27;45319;-61
2021/07/26 01:06:19;;;;;;;;;8.00;8.00;;;;;19.60;69.71;100207.53;5076404;27;45441;-60
2021/07/26 01:08:45;;;;;;;;;12.75;10.25;;;;;19.61;70.21;100205.69;5076284;28;45374;-60
2021/07/26 01:11:10;;;;;;;;;10.00;9.25;;;;;19.62;70.02;100208.13;5076111;27;45918;-60
2021/07/26 01:13:36;;;;;;;;;12.75;10.25;;;;;19.60;69.99;100207.53;5075933;28;45337;-61
2021/07/26 01:16:01;;;;;;;;;9.00;8.50;;;;;19.61;70.04;100208.34;5076240;27;45611;-60
2021/07/26 01:18:27;;;;;;;;;8.50;7.50;;;;;19.60;69.95;100204.88;5074979;27;45463;-61
2021/07/26 01:20:56;;;;;;;;;8.25;7.25;;;;;19.61;70.09;100203.03;5078115;27;45331;-60
2021/07/26 01:23:22;;;;;;;;;9.00;9.00;;;;;19.61;69.67;100217.16;5079535;27;45375;-61
2021/07/26 01:25:48;;;;;;;;;9.50;8.00;;;;;19.61;70.23;100219.00;5079488;27;48380;-61
2021/07/26 01:28:14;;;;;;;;;8.75;8.00;;;;;19.57;69.81;100213.28;5079497;28;45286;-60
2021/07/26 01:30:40;;;;;;;;;9.00;9.00;;;;;19.57;70.05;100210.63;5078122;28;46336;-61
2021/07/26 01:33:09;;;;;;;;;11.00;10.50;;;;;19.58;69.87;100215.72;5079427;27;45353;-62
2021/07/26 01:35:34;;;;;;;;;11.00;8.00;;;;;19.60;70.03;100209.38;5078511;28;45481;-61
2021/07/26 01:38:00;;;;;;;;;8.25;7.75;;;;;19.60;70.14;100222.69;5079398;27;45458;-61
2021/07/26 01:40:25;;;;;;;;;12.00;9.00;;;;;19.60;69.82;100220.88;5078128;27;75600;-58
2021/07/26 01:43:00;;;;;;;;;8.75;8.00;;;;;19.61;70.05;100222.47;5078986;27;56409;-61
2021/07/26 01:45:25;;;;;;;;;9.00;9.00;;;;;19.58;70.27;100226.38;5079372;27;45381;-60
2021/07/26 01:47:51;;;;;;;;;12.00;9.00;;;;;19.57;70.04;100223.94;5079079;28;46168;-60
2021/07/26 01:50:19;;;;;;;;;9.00;7.50;;;;;19.55;70.12;100228.66;5076851;28;75646;-61
2021/07/26 01:52:45;;;;;;;;;9.25;9.00;;;;;19.53;70.75;100228.84;5078991;27;45771;-60
2021/07/26 01:55:11;;;;;;;;;9.25;8.50;;;;;19.55;70.45;100229.47;5060923;28;45714;-60
2021/07/26 01:57:36;;;;;;;;;10.00;8.25;;;;;19.55;70.39;100228.66;5078930;28;45558;-60
2021/07/26 02:00:02;;;;;;;;;8.00;7.50;;;;;19.54;70.29;100237.66;5078054;28;72556;-60
2021/07/26 02:02:28;;;;;;;;;9.75;9.75;;;;;19.51;70.33;100233.56;5078850;27;47710;-60
2021/07/26 02:04:54;;;;;;;;;11.75;10.00;;;;;19.51;70.61;100230.06;5079128;27;45350;-61
2021/07/26 02:07:19;;;;;;;;;18.25;16.25;;;;;19.51;70.50;100236.22;5060499;28;50128;-60
2021/07/26 02:09:45;;;;;;;;;12.00;10.00;;;;;19.52;70.15;100242.38;5078825;27;45895;-60
2021/07/26 02:12:10;;;;;;;;;13.00;11.75;;;;;19.54;70.28;100235.81;5078841;27;45813;-60
2021/07/26 02:14:36;;;;;;;;;9.75;9.75;;;;;19.52;70.19;100237.84;5079048;27;45298;-61
2021/07/26 02:17:01;;;;;;;;;13.75;10.25;;;;;19.50;70.44;100244.44;5078021;27;63973;-60
2021/07/26 02:19:26;;;;;;;;;9.75;9.50;;;;;19.48;70.29;100246.47;5077451;27;74144;-60
2021/07/26 02:21:52;;;;;;;;;12.75;11.75;;;;;19.48;70.42;100249.13;5077831;27;65032;-60
2021/07/26 02:24:17;;;;;;;;;9.00;8.50;;;;;19.47;70.21;100247.50;5078705;28;45372;-60
2021/07/26 02:26:43;;;;;;;;;10.75;9.50;;;;;19.47;70.17;100252.81;5078658;27;45296;-61
2021/07/26 02:29:08;;;;;;;;;11.75;10.00;;;;;19.46;70.12;100253.84;5078511;27;45868;-60
2021/07/26 02:31:34;;;;;;;;;10.25;9.00;;;;;19.46;70.02;100249.31;5077921;27;45291;-60
2021/07/26 02:33:59;;;;;;;;;10.75;9.25;;;;;19.46;69.95;100248.50;5078538;28;45268;-60
2021/07/26 02:36:24;;;;;;;;;11.00;10.00;;;;;19.45;70.23;100252.19;5078699;27;45358;-61
2021/07/26 02:38:50;;;;;;;;;10.50;10.50;;;;;19.43;70.06;100255.06;5077269;27;74353;-61
2021/07/26 02:41:15;;;;;;;;;10.75;9.75;;;;;19.41;69.67;100259.75;5077140;27;71889;-60
2021/07/26 02:43:41;;;;;;;;;13.00;12.00;;;;;19.38;69.94;100253.00;5078390;28;45267;-61
2021/07/26 02:46:06;;;;;;;;;16.75;13.00;;;;;19.39;69.59;100253.81;5078275;27;45551;-60
2021/07/26 02:48:35;;;;;;;;;14.75;13.00;;;;;19.36;69.22;100249.72;5078339;27;45450;-60
2021/07/26 02:51:01;;;;;;;;;15.75;13.75;;;;;19.35;69.33;100257.91;5078226;27;45775;-61
2021/07/26 02:53:26;;;;;;;;;16.75;14.75;;;;;19.32;69.24;100256.47;5077872;27;46057;-60
2021/07/26 02:55:51;;;;;;;;;8.25;7.25;;;;;19.32;69.17;100258.31;5077744;27;57653;-61
2021/07/26 02:58:17;;;;;;;;;17.50;15.25;;;;;19.29;68.90;100254.19;5077411;28;65619;-61
2021/07/26 03:00:45;;;;;;;;;14.50;13.50;;;;;19.27;68.93;100259.75;5077022;27;69699;-61
2021/07/26 03:03:10;;;;;;;;;11.75;11.00;;;;;19.25;69.07;100263.63;5078102;27;45290;-60
2021/07/26 03:05:36;;;;;;;;;18.00;15.75;;;;;19.23;68.68;100263.81;5077107;27;69280;-60
2021/07/26 03:08:01;;;;;;;;;15.00;13.75;;;;;19.23;68.88;100268.31;5076890;27;71742;-60
2021/07/26 03:10:26;;;;;;;;;13.25;12.00;;;;;19.21;68.56;100268.53;5077285;28;58224;-60
2021/07/26 03:12:52;;;;;;;;;16.50;15.25;;;;;19.19;68.94;100267.91;5077835;27;45510;-60
2021/07/26 03:15:19;;;;;;;;;11.75;10.25;;;;;19.16;68.41;100272.78;5076831;27;70400;-61
2021/07/26 03:17:45;;;;;;;;;18.25;14.50;;;;;19.13;68.82;100271.38;5077696;27;47015;-61
2021/07/26 03:20:11;;;;;;;;;14.00;12.00;;;;;19.12;68.21;100265.19;5077279;27;48735;-60
2021/07/26 03:22:52;;;;;;;;;16.25;11.75;;;;;19.06;68.91;100271.34;5077694;27;45294;-61
2021/07/26 03:25:18;;;;;;;;;12.00;9.00;;;;;19.04;68.62;100267.22;5077744;27;45286;-60
2021/07/26 03:27:44;;;;;;;;;21.50;15.50;;;;;18.99;68.52;100270.50;5077444;27;45272;-60
2021/07/26 03:30:10;;;;;;;;;13.75;12.25;;;;;18.95;69.04;100275.34;5077506;27;45263;-61
2021/07/26 03:32:35;;;;;;;;;14.25;13.75;;;;;18.91;69.12;100262.66;5077516;27;45213;-61
2021/07/26 03:35:00;;;;;;;;;12.75;12.00;;;;;18.88;69.09;100263.03;5075350;28;68429;-60
2021/07/26 03:37:26;;;;;;;;;15.50;15.50;;;;;18.86;69.30;100262.41;5077381;27;45911;-61
2021/07/26 03:39:51;;;;;;;;;18.00;15.25;;;;;18.86;68.87;100281.03;5076355;27;72219;-60
2021/07/26 03:42:16;;;;;;;;;14.75;12.50;;;;;18.81;69.13;100279.00;5075495;27;69286;-61
2021/07/26 03:44:42;;;;;;;;;17.50;15.25;;;;;18.80;68.62;100277.34;5076900;27;52288;-60
2021/07/26 03:47:07;;;;;;;;;16.00;14.25;;;;;18.79;68.88;100284.50;5075091;28;72609;-62
2021/07/26 03:49:33;;;;;;;;;15.75;13.75;;;;;18.77;69.28;100283.88;5076613;28;61840;-60
2021/07/26 03:51:58;;;;;;;;;12.75;11.75;;;;;18.75;69.38;100291.22;5076612;27;62911;-60
2021/07/26 03:54:23;;;;;;;;;14.75;12.75;;;;;18.75;69.44;100290.41;5076324;27;66486;-60
2021/07/26 03:56:49;;;;;;;;;13.25;11.75;;;;;18.75;69.55;100299.22;5076186;27;75094;-61
2021/07/26 03:59:14;;;;;;;;;12.25;12.00;;;;;18.74;69.07;100286.91;5076324;27;72239;-59
2021/07/26 04:01:39;;;;;;;;;13.75;13.50;;;;;18.73;69.05;100297.78;5076349;27;65088;-60
2021/07/26 04:04:05;;;;;;;;;17.00;15.00;;;;;18.72;69.68;100294.28;5076009;28;70441;-60
2021/07/26 04:06:30;;;;;;;;;15.00;14.50;;;;;18.71;69.65;100289.97;5076785;27;45354;-61
2021/07/26 04:08:56;;;;;;;;;16.75;13.25;;;;;18.72;69.22;100285.47;5077080;28;45290;-61
2021/07/26 04:11:25;;;;;;;;;13.25;11.50;;;;;18.72;69.41;100286.28;5076592;27;49903;-61
2021/07/26 04:13:57;;;;;;;;;13.00;10.75;;;;;18.70;69.71;100288.31;5077033;27;45262;-60
2021/07/26 04:16:23;;;;;;;;;15.75;13.50;;;;;18.68;70.11;100290.34;5076741;27;46369;-60
2021/07/26 04:18:50;;;;;;;;;14.75;13.50;;;;;18.68;69.85;100285.88;5075758;28;70837;-60
2021/07/26 04:21:16;;;;;;;;;14.00;12.00;;;;;18.68;69.84;100296.53;5077049;27;45378;-61
2021/07/26 04:23:42;;;;;;;;;12.50;9.75;;;;;18.68;70.11;100298.34;5076816;28;45422;-61
2021/07/26 04:26:07;;;;;;;;;11.00;10.75;;;;;18.68;70.31;100298.34;5075896;28;66374;-61
2021/07/26 04:28:33;;;;;;;;;10.00;10.00;;;;;18.69;70.40;100297.31;5076277;27;45317;-61
2021/07/26 04:30:58;;;;;;;;;13.00;11.25;;;;;18.70;70.44;100296.31;5075871;27;67162;-61
2021/07/26 04:33:23;;;;;;;;;11.50;10.50;;;;;18.71;70.26;100297.97;5075756;27;69177;-60
2021/07/26 04:35:49;;;;;;;;;13.25;12.25;;;;;18.74;70.07;100296.75;5076565;28;46054;-61
2021/07/26 04:38:14;;;;;;;;;12.25;11.00;;;;;18.78;69.84;100306.81;5075705;27;67494;-60
2021/07/26 04:40:39;;;;;;;;;13.00;12.25;;;;;18.78;69.95;100296.16;5076061;27;61675;-61
2021/07/26 04:43:05;;;;;;;;;15.25;12.50;;;;;18.80;69.57;100295.97;5075886;27;65216;-61
2021/07/26 04:45:31;;;;;;;;;13.75;11.75;;;;;18.81;69.54;100298.44;5076482;27;45380;-61
2021/07/26 04:47:56;;;;;;;;;15.25;11.75;;;;;18.84;69.62;100295.38;5075196;28;45438;-60
2021/07/26 04:50:21;;;;;;;;;13.75;11.50;;;;;18.86;69.07;100302.34;5075563;27;67979;-61
2021/07/26 04:52:47;;;;;;;;;14.75;12.00;;;;;18.87;69.34;100304.78;5075682;28;61296;-61
2021/07/26 04:55:13;;;;;;;;;12.00;10.75;;;;;18.87;69.32;100310.13;5078196;27;74135;-61
2021/07/26 04:57:38;;;;;;;;;14.00;12.75;;;;;18.89;69.09;100309.94;5079866;27;47009;-60
2021/07/26 05:00:04;;;;;;;;;14.00;11.75;;;;;18.90;69.14;100316.91;5080070;27;45243;-61
2021/07/26 05:02:29;;;;;;;;;13.75;13.00;;;;;18.93;68.78;100313.84;5080033;27;45599;-60
2021/07/26 05:04:55;;;;;;;;;16.25;14.25;;;;;18.95;68.70;100311.81;5079066;27;69249;-60
2021/07/26 05:07:20;;;;;;;;;12.75;12.75;;;;;18.98;69.25;100314.13;5079588;27;45223;-60
2021/07/26 05:09:45;;;;;;;;;13.00;12.25;;;;;18.98;69.17;100317.59;5080162;27;45413;-61
2021/07/26 05:12:12;;;;;;;;;13.50;12.00;;;;;19.00;69.08;100313.91;5078827;27;69034;-61
2021/07/26 05:14:41;;;;;;;;;14.25;14.25;;;;;19.02;69.19;100312.72;5078175;28;45457;-60
2021/07/26 05:17:07;;;;;;;;;13.25;13.25;;;;;19.05;68.85;100317.63;5079699;27;45402;-61
2021/07/26 05:19:32;;;;;;;;;13.25;11.50;;;;;19.06;68.77;100321.94;5079014;27;54000;-60
2021/07/26 05:21:57;;;;;;;;;14.50;12.50;;;;;19.07;68.95;100326.25;5079448;27;45440;-60
2021/07/26 05:24:24;;;;;;;;;15.75;12.00;;;;;19.12;69.20;100323.78;5078348;27;75491;-61
2021/07/26 05:26:59;;;;;;;;;15.25;14.00;;;;;19.12;68.28;100323.78;5078968;27;45263;-59
2021/07/26 05:29:25;;;;;;;;;12.25;11.75;;;;;19.16;68.29;100323.41;5079724;27;45516;-61
2021/07/26 05:31:50;;;;;;;;;16.00;14.00;;;;;19.18;68.47;100318.69;5079028;27;45591;-60
2021/07/26 05:34:15;;;;;;;;;14.00;12.25;;;;;19.18;68.09;100318.69;5079053;27;45354;-61
2021/07/26 05:36:41;;;;;;;;;14.50;13.75;;;;;19.20;67.98;100324.66;5078332;27;73214;-60
2021/07/26 05:39:06;;;;;;;;;13.00;12.25;;;;;19.20;68.09;100329.97;5078419;27;67406;-61
2021/07/26 05:41:32;;;;;;;;;10.75;10.75;;;;;19.22;68.15;100326.09;5078379;28;64384;-61
2021/07/26 05:43:57;;;;;;;;;12.50;11.25;;;;;19.23;68.09;100318.91;5078466;27;65205;-60
2021/07/26 05:46:22;;;;;;;;;12.00;9.50;;;;;19.26;68.17;100321.19;5078059;27;70668;-61
2021/07/26 05:48:48;;;;;;;;;11.75;11.25;;;;;19.28;68.02;100322.66;5078289;27;67343;-61
2021/07/26 05:51:13;;;;;;;;;11.00;10.00;;;;;19.32;67.56;100327.59;5078305;27;64556;-61
2021/07/26 05:53:38;;;;;;;;;10.00;10.00;;;;;19.34;67.70;100329.00;5077803;27;75533;-60
2021/07/26 05:56:05;;;;;;;;;9.50;9.50;;;;;19.37;67.72;100325.94;5077040;28;69339;-61
2021/07/26 05:58:32;;;;;;;;;10.50;9.75;;;;;19.40;67.64;100327.38;5078830;27;45398;-61
2021/07/26 06:01:09;;;;;;;;;24.00;23.50;;;;;19.43;67.57;100326.97;5079006;27;45572;-61
2021/07/26 06:03:35;;;;;;;;;13.25;12.00;;;;;19.47;67.92;100330.09;5078881;27;46163;-61
2021/07/26 06:06:05;;;;;;;;;10.50;10.50;;;;;19.49;67.56;100339.50;5077355;27;45296;-61
2021/07/26 06:08:30;;;;;;;;;13.00;10.00;;;;;19.51;67.54;100339.34;5079074;28;45325;-60
2021/07/26 06:10:56;;;;;;;;;10.25;10.00;;;;;19.51;67.17;100336.66;5077742;28;69735;-61
2021/07/26 06:13:21;;;;;;;;;10.50;10.50;;;;;19.51;67.37;100336.66;5078629;28;45375;-61
2021/07/26 06:15:46;;;;;;;;;10.25;8.50;;;;;19.51;67.38;100334.00;5077982;27;69741;-61
2021/07/26 06:18:12;;;;;;;;;12.00;10.50;;;;;19.53;67.45;100334.63;5077629;27;69563;-61
2021/07/26 06:20:37;;;;;;;;;10.50;9.25;;;;;19.56;67.33;100326.22;5077488;27;68428;-60
2021/07/26 06:23:02;;;;;;;;;13.25;11.25;;;;;19.61;67.35;100322.94;5077398;27;75690;-60
2021/07/26 06:25:28;;;;;;;;;15.50;11.50;;;;;19.66;67.48;100329.31;5077917;27;60578;-61
2021/07/26 06:27:54;;;;;;;;;8.75;8.25;;;;;19.73;66.91;100334.66;5077745;28;67509;-60
2021/07/26 06:30:19;;;;;;;;;11.00;9.25;;;;;19.79;66.36;100336.53;5077912;27;45597;-60
2021/07/26 06:32:44;;;;;;;;;14.25;10.00;;;;;19.83;66.11;100334.28;5078373;28;45349;-61
2021/07/26 06:35:10;;;;;;;;;11.75;8.50;;;;;19.89;66.54;100338.81;5078615;27;45340;-61
2021/07/26 06:37:36;;;;;;;;;9.00;9.00;;;;;19.93;66.13;100345.41;5078311;27;45440;-61
2021/07/26 06:40:02;;;;;;;;;9.50;7.50;;;;;19.96;66.35;100336.16;5078068;27;46785;-60
2021/07/26 06:42:28;;;;;;;;;12.25;9.00;;;;;20.00;65.73;100342.72;5077938;27;45408;-61
2021/07/26 06:44:53;;;;;;;;;7.75;7.00;;;;;20.03;65.93;100345.00;5078452;28;45464;-60
2021/07/26 06:47:18;;;;;;;;;7.75;7.00;;;;;20.07;65.99;100342.75;5078422;28;45770;-61
2021/07/26 06:49:44;;;;;;;;;11.50;7.75;;;;;20.11;66.14;100352.00;5078463;27;45383;-60
2021/07/26 06:52:10;;;;;;;;;11.75;9.00;;;;;20.16;65.63;100349.50;5077258;27;69192;-61
2021/07/26 06:54:35;;;;;;;;;8.25;7.00;;;;;20.22;65.59;100354.03;5078095;27;45286;-60
2021/07/26 06:57:00;;;;;;;;;8.75;8.75;;;;;20.30;65.30;100345.03;5077375;27;69233;-60
2021/07/26 06:59:26;;;;;;;;;10.50;9.00;;;;;20.36;65.52;100348.72;5076977;28;69432;-60
2021/07/26 07:01:51;;;;;;;;;8.75;8.00;;;;;;;;5077534;27;61958;-60
2021/07/26 07:04:16;;;;;;;;;7.33;7.00;;;;;20.50;64.88;100357.53;5077697;28;56403;-61
2021/07/26 07:06:42;;;;;;;;;10.75;8.00;;;;;20.55;65.25;100355.88;5078100;27;45267;-60
2021/07/26 07:09:07;;;;;;;;;9.00;7.00;;;;;20.59;64.99;100359.78;5078154;27;45346;-61
2021/07/26 07:11:32;;;;;;;;;11.25;9.75;;;;;20.63;64.46;100360.19;5076697;28;75526;-60
2021/07/26 07:13:58;;;;;;;;;8.25;8.00;;;;;20.66;64.77;100358.97;5077381;27;53371;-61
2021/07/26 07:16:23;;;;;;;;;7.25;6.50;;;;;20.68;64.33;100364.88;5077811;27;45314;-61
2021/07/26 07:18:50;;;;;;;;;7.00;7.00;;;;;20.68;63.65;100362.22;5077942;27;45294;-60
2021/07/26 07:21:17;;;;;;;;;7.00;6.75;;;;;20.69;63.60;100369.19;5077530;27;45993;-60
2021/07/26 07:23:42;;;;;;;;;8.75;6.75;;;;;20.70;63.70;100369.00;5077836;27;45243;-60
2021/07/26 07:26:08;;;;;;;;;8.75;8.75;;;;;20.72;63.43;100363.44;5077918;27;45161;-61
2021/07/26 07:28:33;;;;;;;;;7.75;7.75;;;;;20.73;63.62;100373.09;5076924;27;64983;-61
2021/07/26 07:30:58;;;;;;;;;6.75;6.00;;;;;20.74;63.54;100372.91;5076440;28;72226;-60
2021/07/26 07:33:25;;;;;;;;;9.50;8.25;;;;;20.76;63.06;100375.34;5076350;27;73322;-61
2021/07/26 07:35:50;;;;;;;;;8.00;8.00;;;;;20.78;63.24;100381.34;5077872;27;45452;-60
2021/07/26 07:38:16;;;;;;;;;9.75;8.00;;;;;20.82;63.29;100371.09;5077679;27;45437;-61
2021/07/26 07:40:41;;;;;;;;;10.00;8.00;;;;;20.84;63.08;100375.19;5076325;27;72244;-61
2021/07/26 07:43:06;;;;;;;;;8.00;8.00;;;;;20.89;63.71;100374.56;5076464;27;72265;-62
2021/07/26 07:45:32;;;;;;;;;11.00;10.00;;;;;20.94;63.21;100374.72;5077740;27;45635;-61
2021/07/26 07:47:58;;;;;;;;;11.00;8.50;;;;;20.99;62.99;100376.81;5077063;27;45314;-61
2021/07/26 07:50:24;;;;;;;;;10.25;8.75;;;;;21.05;63.26;100374.09;5077246;27;45764;-61
2021/07/26 07:52:49;;;;;;;;;9.25;8.25;;;;;21.12;63.59;100381.28;5077322;27;45332;-61
2021/07/26 07:55:14;;;;;;;;;10.50;8.75;;;;;21.16;63.17;100385.16;5076193;27;69398;-61
2021/07/26 07:57:40;;;;;;;;;12.75;7.75;;;;;21.14;64.00;100395.25;5076440;27;66416;-60
2021/07/26 08:00:12;;;;;;;;;10.00;9.00;;;;;21.12;64.93;100383.94;5077187;27;45283;-61
2021/07/26 08:02:37;;;;;;;;;6.25;6.00;;;;;21.04;65.61;100393.03;5077152;27;45761;-61
2021/07/26 08:05:03;;;;;;;;;5.75;5.25;;;;;20.98;66.33;100393.84;5076901;27;47448;-61
2021/07/26 08:07:28;;;;;;;;;5.00;4.75;;;;;20.93;66.22;100394.47;5076622;27;45411;-60
2021/07/26 08:09:54;;;;;;;;;5.75;5.75;;;;;20.87;66.21;100387.31;5074641;28;73305;-60
2021/07/26 08:12:19;;;;;;;;;7.00;5.50;;;;;20.81;66.25;100394.28;5076124;27;65610;-60
2021/07/26 08:14:45;;;;;;;;;9.00;6.75;;;;;20.74;66.18;100402.28;5076235;27;63949;-61
2021/07/26 08:17:10;;;;;;;;;7.50;6.00;;;;;20.70;67.23;100393.03;5076887;27;45509;-62
2021/07/26 08:19:36;;;;;;;;;10.00;8.75;;;;;20.68;66.93;100399.59;5075819;28;74563;-61
2021/07/26 08:22:01;;;;;;;;;9.75;8.25;;;;;20.63;66.82;100400.22;5076228;27;67595;-60
2021/07/26 08:24:26;;;;;;;;;10.00;9.50;;;;;20.60;67.57;100397.97;5077129;28;45274;-61
2021/07/26 08:26:52;;;;;;;;;9.00;9.00;;;;;20.58;68.03;100400.03;5076018;27;68252;-61
2021/07/26 08:29:17;;;;;;;;;9.50;9.50;;;;;20.57;68.42;100409.06;5075139;28;74133;-61
2021/07/26 08:31:42;;;;;;;;;10.50;9.50;;;;;20.57;68.50;100409.88;5075954;27;69095;-60
2021/07/26 08:34:08;;;;;;;;;11.00;10.00;;;;;20.60;68.62;100408.66;5075849;27;68157;-60
2021/07/26 08:36:33;;;;;;;;;11.50;10.50;;;;;20.64;68.04;100411.75;5076925;27;45331;-60
2021/07/26 08:38:59;;;;;;;;;12.25;12.25;;;;;20.68;68.33;100407.59;5075808;27;70307;-61
2021/07/26 08:41:24;;;;;;;;;15.75;12.75;;;;;20.76;69.59;100405.56;5075798;27;66326;-60
2021/07/26 08:43:49;;;;;;;;;11.25;9.25;;;;;20.83;68.96;100408.25;5076722;27;45259;-61
2021/07/26 08:46:16;;;;;;;;;12.00;10.25;;;;;20.89;68.94;100404.75;5076801;28;45208;-61
2021/07/26 08:48:42;;;;;;;;;13.75;13.50;;;;;20.97;68.71;100405.56;5076457;27;46142;-61
2021/07/26 08:51:07;;;;;;;;;14.25;12.25;;;;;21.02;68.26;100411.91;5074040;27;72056;-62
2021/07/26 08:53:33;;;;;;;;;10.25;10.25;;;;;21.07;67.87;100410.47;5074342;28;68622;-61
2021/07/26 08:55:59;;;;;;;;;11.00;11.00;;;;;21.12;68.17;100416.00;5075013;28;45376;-60
2021/07/26 08:58:25;;;;;;;;;13.75;13.75;;;;;21.18;68.72;100413.34;5075104;28;45898;-61
2021/07/26 09:00:50;;;;;;;;;16.50;14.75;;;;;21.26;68.06;100412.28;5074813;28;46457;-60
2021/07/26 09:03:15;;;;;;;;;14.50;12.25;;;;;21.36;68.18;100422.53;5075157;28;45409;-61
2021/07/26 09:05:43;;;;;;;;;17.00;14.50;;;;;21.53;68.12;100414.03;5075312;27;66573;-60
2021/07/26 09:08:08;;;;;;;;;15.00;15.00;;;;;21.71;67.24;100422.22;5075910;27;46998;-61
2021/07/26 09:10:35;;;;;;;;;12.25;10.25;;;;;21.89;67.77;100412.66;5074909;27;67263;-61
2021/07/26 09:13:01;;;;;;;;;21.25;19.25;;;;;22.04;66.29;100421.22;5075799;27;45390;-61
2021/07/26 09:15:27;;;;;;;;;15.25;13.75;;;;;22.14;66.38;100423.41;5076000;27;45424;-62
2021/07/26 09:17:53;;;;;;;;;15.25;13.75;;;;;22.22;65.40;100423.16;5076005;27;45353;-60
2021/07/26 09:20:20;;;;;;;;;13.50;12.50;;;;;22.28;65.58;100428.69;5075645;28;45372;-62
2021/07/26 09:22:49;;;;;;;;;14.50;13.25;;;;;22.30;63.61;100421.25;5075939;27;45201;-61
2021/07/26 09:25:21;;;;;;;;;13.75;12.75;;;;;22.33;64.44;100424.31;5076046;27;45616;-62
2021/07/26 09:28:00;;;;;;;;;11.75;11.00;;;;;22.32;63.53;100422.66;5075640;28;45946;-61
2021/07/26 09:30:32;;;;;;;;;17.75;12.50;;;;;22.30;62.98;100415.91;5075767;27;45551;-60
2021/07/26 09:32:59;;;;;;;;;11.75;9.00;;;;;22.29;63.20;100412.41;5075699;27;45348;-60
2021/07/26 09:35:25;;;;;;;;;9.50;8.50;;;;;22.37;63.52;100412.13;5069638;27;45603;-61
2021/07/26 09:38:03;;;;;;;;;10.75;10.25;;;;;22.55;64.01;100413.28;5075427;27;45635;-60
2021/07/26 09:40:32;;;;;;;;;11.00;10.00;;;;;22.72;64.16;100416.22;5074601;28;45555;-60
2021/07/26 09:43:13;;;;;;;;;13.00;10.50;;;;;22.88;63.18;100411.34;5077074;28;45522;-61
2021/07/26 09:45:39;;;;;;;;;15.25;12.75;;;;;22.96;62.95;100419.91;5078045;28;47184;-61
2021/07/26 09:48:04;;;;;;;;;15.50;13.25;;;;;23.07;61.91;100414.84;5059202;28;64900;-61
2021/07/26 09:50:45;;;;;;;;;12.25;9.00;;;;;23.16;61.59;100413.53;5076535;27;45554;-61
2021/07/26 09:53:12;;;;;;;;;10.50;9.75;;;;;23.25;61.30;100412.22;5078030;27;45416;-61
2021/07/26 09:55:38;;;;;;;;;15.50;11.75;;;;;23.31;60.54;100412.38;5079576;27;45381;-61
2021/07/26 09:58:05;;;;;;;;;12.50;12.50;;;;;23.34;59.85;100417.25;5079075;27;45406;-61
2021/07/26 10:00:31;;;;;;;;;13.25;10.25;;;;;23.36;60.29;100425.88;5077739;28;45276;-61
2021/07/26 10:02:57;;;;;;;;;12.00;10.25;;;;;23.34;59.95;100430.66;5077855;28;45274;-62
2021/07/26 10:05:23;;;;;;;;;9.25;9.25;;;;;23.27;60.12;100426.22;5053803;28;45331;-61
2021/07/26 10:07:51;;;;;;;;;14.00;11.00;;;;;23.17;61.00;100441.97;5066749;28;45434;-61
2021/07/26 10:10:16;;;;;;;;;9.50;7.00;;;;;23.03;61.15;100443.13;5071215;28;49628;-62
2021/07/26 10:12:41;;;;;;;;;8.00;6.75;;;;;22.88;61.42;100446.97;5067241;28;45526;-61
2021/07/26 10:15:07;;;;;;;;;11.25;8.25;;;;;22.74;62.26;100446.28;5068148;28;54185;-61
2021/07/26 10:17:33;;;;;;;;;8.25;7.00;;;;;22.60;62.24;100436.69;5070978;28;49175;-61
2021/07/26 10:19:58;;;;;;;;;12.00;11.00;;;;;22.47;62.88;100437.63;5059974;28;73311;-60
2021/07/26 10:22:23;;;;;;;;;9.25;8.50;;;;;22.36;63.21;100436.44;5058581;28;45435;-61
2021/07/26 10:24:50;;;;;;;;;7.75;7.75;;;;;22.27;63.53;100435.88;5057517;28;45396;-62
2021/07/26 10:27:21;;;;;;;;;9.50;8.50;;;;;22.20;63.29;100445.84;5057050;28;50451;-61
2021/07/26 10:29:56;;;;;;;;;9.75;8.25;;;;;22.15;63.94;100443.78;5057035;28;45313;-60
2021/07/26 10:32:31;;;;;;;;;11.50;10.50;;;;;22.13;64.65;100445.84;5057210;28;45400;-61
2021/07/26 10:35:00;;;;;;;;;10.25;10.25;;;;;22.14;64.58;100449.38;5058215;28;45426;-61
2021/07/26 10:37:41;;;;;;;;;12.50;10.75;;;;;22.19;65.57;100445.00;5058135;28;46052;-61
2021/07/26 10:40:31;;;;;;;;;6.50;4.50;;;;;22.26;65.54;100444.13;5057885;28;45449;-61
2021/07/26 10:43:02;;;;;;;;;12.75;10.00;;;;;22.35;65.01;100449.00;5058121;28;45165;-60
2021/07/26 10:45:33;;;;;;;;;13.25;13.00;;;;;22.54;65.96;100441.09;5058674;27;45357;-61
2021/07/26 10:48:20;;;;;;;;;9.00;7.25;;;;;22.76;65.19;100446.06;5057644;28;46187;-61
2021/07/26 10:50:47;;;;;;;;;11.50;11.50;;;;;22.90;63.99;100444.09;5056516;28;45962;-61
2021/07/26 10:53:32;;;;;;;;;14.75;12.50;;;;;23.06;63.13;100450.72;5054948;28;45491;-62
2021/07/26 10:56:06;;;;;;;;;14.00;13.50;;;;;23.15;63.49;100448.56;5056379;28;45459;-61
2021/07/26 10:58:37;;;;;;;;;13.00;12.75;;;;;23.27;63.35;100439.63;5056270;28;45430;-61
2021/07/26 11:01:21;;;;;;;;;15.00;13.00;;;;;23.46;62.88;100444.97;5056459;28;45505;-61
2021/07/26 11:03:56;;;;;;;;;13.50;11.25;;;;;23.66;63.40;100447.41;5057524;28;45461;-61
2021/07/26 11:06:37;;;;;;;;;13.50;11.75;;;;;23.84;61.97;100433.16;5056530;28;45464;-61
2021/07/26 11:09:20;;;;;;;;;16.00;12.25;;;;;23.99;62.84;100431.94;5057506;28;46173;-62
2021/07/26 11:11:46;;;;;;;;;14.00;14.00;;;;;24.05;61.72;100433.72;5057556;28;45988;-62
2021/07/26 11:14:12;;;;;;;;;17.50;17.00;;;;;24.09;60.46;100432.22;5057561;28;45358;-61